Flight Track Log - Related Links

Times and Time Zones

All times are in EDT time to prevent confusion due to time zone crossing. See the ASQ5685 flight status page for this flight to view local times or setup timezone preferences in your user account.

Time Position Orientation Groundspeed Altitude Reporting Facility
EDT Latitude Longitude Course Direction KTS MPH feet Rate Location/Type
Sun 09:32:30 AM 33.6286 -84.4853 48° Northeast 402 463 2,500  Level Atlanta Center
Sun 09:33:30 AM 33.5992 -84.5575 244° Southwest 309 356 3,900 1,800 Climbing Atlanta Center
Sun 09:34:30 AM 33.5342 -84.5872 201° Southwest 265 305 6,100 2,250 Climbing Atlanta Center
Sun 09:35:00 AM 33.7767 -83.9335 54° Northeast  Level FlightAware Approximate
Sun 09:35:30 AM 33.4697 -84.5667 165° South 288 331 8,400  Level Atlanta Center
Sun 09:36:00 AM 33.8400 -83.8280 54° Northeast  Level FlightAware Approximate
Sun 09:36:30 AM 33.4533 -84.4669 101° East 299 344 10,300  Level Atlanta Center
Sun 09:37:00 AM 33.9085 -83.7276 48° Northeast  Level FlightAware Approximate
Sun 09:37:30 AM 33.4578 -84.3575 87° East 317 365 11,100  Level Atlanta Center
Sun 09:38:30 AM 33.5186 -84.2581 54° Northeast 330 380 12,000 1,050 Climbing Atlanta Center
Sun 09:39:30 AM 33.5917 -84.1611 48° Northeast 353 406 13,200 1,400 Climbing Atlanta Center
Sun 09:40:30 AM 33.6669 -84.0661 46° Northeast 382 440 14,800 1,450 Climbing Atlanta Center
Sun 09:41:30 AM 33.7378 -83.9714 48° Northeast 387 445 16,100 1,150 Climbing Atlanta Center
Sun 09:42:30 AM 33.8108 -83.8739 48° Northeast 387 445 17,100 950 Climbing Atlanta Center
Sun 09:43:30 AM 33.8858 -83.7761 47° Northeast 387 445 18,000 950 Climbing Atlanta Center
Sun 09:44:30 AM 33.9564 -83.6731 50° Northeast 395 455 19,000 1,000 Climbing Atlanta Center
Sun 09:45:30 AM 34.0231 -83.5675 53° Northeast 395 455 20,000 1,050 Climbing Atlanta Center
Sun 09:46:30 AM 34.0956 -83.4492 53° Northeast 395 455 21,100 1,050 Climbing Atlanta Center
Sun 09:47:30 AM 34.1639 -83.3433 52° Northeast 395 455 22,100 1,000 Climbing Atlanta Center
Sun 09:48:30 AM 34.2319 -83.2372 52° Northeast 390 449 23,100 750 Climbing Atlanta Center
Sun 09:49:30 AM 34.3000 -83.1261 53° Northeast 395 455 23,600 500 Climbing Atlanta Center
Sun 09:50:30 AM 34.3617 -83.0097 57° Northeast 405 466 24,100 500 Climbing Atlanta Center
Sun 09:51:30 AM 34.4400 -82.8978 50° Northeast 418 481 24,600 500 Climbing Atlanta Center
Sun 09:52:30 AM 34.5142 -82.7808 52° Northeast 426 490 25,100 500 Climbing Atlanta Center
Sun 09:53:30 AM 34.5839 -82.6611 55° Northeast 431 496 25,600 500 Climbing Atlanta Center
Sun 09:54:30 AM 34.6597 -82.5464 51° Northeast 437 503 26,100 500 Climbing Atlanta Center
Sun 09:55:30 AM 34.7311 -82.4261 54° Northeast 437 503 26,600 500 Climbing Atlanta Center
Sun 09:56:30 AM 34.8047 -82.3033 54° Northeast 437 503 27,100 500 Climbing Atlanta Center
Sun 09:57:30 AM 34.8800 -82.1828 53° Northeast 445 512 27,600 500 Climbing Atlanta Center
Sun 09:58:30 AM 34.9553 -82.0619 53° Northeast 445 512 28,100 500 Climbing Atlanta Center
Sun 09:59:30 AM 35.0286 -81.9436 53° Northeast 445 512 28,600 500 Climbing Atlanta Center
Sun 10:00:30 AM 35.0972 -81.8125 57° Northeast 445 512 29,100 500 Climbing Atlanta Center
Sun 10:01:30 AM 35.1636 -81.6861 57° Northeast 445 512 29,600 500 Climbing Atlanta Center
Sun 10:02:30 AM 35.2319 -81.5572 57° Northeast 445 512 30,100 550 Climbing Atlanta Center
Sun 10:03:30 AM 35.2983 -81.4303 57° Northeast 445 512 30,700 450 Climbing Atlanta Center
Sun 10:04:30 AM 35.3644 -81.3011 58° Northeast 445 512 31,000 150 Climbing Atlanta Center
Sun 10:05:30 AM 35.4322 -81.1661 58° Northeast 451 519 31,000  Level Atlanta Center
Sun 10:06:30 AM 35.5019 -81.0286 58° Northeast 466 536 31,000  Level Atlanta Center
Sun 10:07:30 AM 35.5736 -80.8956 56° Northeast 471 542 31,000  Level Atlanta Center
Sun 10:08:30 AM 35.6453 -80.7625 56° Northeast 471 542 31,000  Level Atlanta Center
Sun 10:09:30 AM 35.7144 -80.6242 58° Northeast 466 536 31,000  Level Atlanta Center
Sun 10:10:30 AM 35.7836 -80.4883 58° Northeast 466 536 31,000  Level Atlanta Center
Sun 10:11:30 AM 35.8547 -80.3494 58° Northeast 471 542 31,000  Level Atlanta Center
Sun 10:13:39 AM 36.0014 -80.0697 57° Northeast 471 542 31,000  Level Washington Center
Sun 10:14:40 AM 36.0931 -79.9567 45° Northeast 454 522 31,000  Level Washington Center
Sun 10:15:40 AM 36.1950 -79.8542 39° Northeast 454 522 31,000  Level Washington Center
Sun 10:16:39 AM 36.2836 -79.7636 39° Northeast 462 532 31,000  Level Washington Center
Sun 10:17:40 AM 36.3858 -79.6453 43° Northeast 462 532 31,000 -458 Level Washington Center
Sun 10:18:37 AM 36.4586 -79.5303 52° Northeast 456 525 30,100 -1,729 Descending Washington Center
Sun 10:19:38 AM 36.5356 -79.4075 52° Northeast 456 525 27,600 -2,410 Descending Washington Center
Sun 10:20:39 AM 36.6122 -79.2897 51° Northeast 451 519 25,200 -1,279 Descending Washington Center
Sun 10:21:40 AM 36.6953 -79.1642 50° Northeast 434 499 25,000 -99 Descending Washington Center
Sun 10:22:40 AM 36.7656 -79.0481 53° Northeast 427 491 25,000  Level Washington Center
Sun 10:23:38 AM 36.8375 -78.9372 51° Northeast 422 486 25,000  Level Washington Center
Sun 10:24:39 AM 36.9117 -78.8233 51° Northeast 417 480 25,000  Level Washington Center
Sun 10:25:40 AM 36.9747 -78.7194 53° Northeast 417 480 25,000  Level Washington Center
Sun 10:26:40 AM 37.0486 -78.6081 50° Northeast 412 474 25,000  Level Washington Center
Sun 10:27:38 AM 37.1183 -78.4933 53° Northeast 412 474 25,000  Level Washington Center
Sun 10:28:38 AM 37.1983 -78.3686 51° Northeast 412 474 25,000  Level Washington Center
Sun 10:29:39 AM 37.2719 -78.2567 50° Northeast 412 474 25,000  Level Washington Center
Sun 10:30:40 AM 37.3653 -78.1761 34° Northeast 407 468 25,000 -353 Level Washington Center
Sun 10:31:38 AM 37.4483 -78.1031 35° Northeast 402 463 24,300 -1,220 Descending Washington Center
Sun 10:32:38 AM 37.5417 -78.0197 35° Northeast 408 470 22,600 -1,736 Descending Washington Center
Sun 10:33:39 AM 37.6289 -77.9414 35° Northeast 397 457 20,800 -1,934 Descending Washington Center
Sun 10:34:39 AM 37.7117 -77.8650 36° Northeast 384 442 18,700 -2,083 Descending Washington Center
Sun 10:35:40 AM 37.7964 -77.7889 35° Northeast 374 430 16,600 -1,361 Descending Washington Center
Sun 10:36:38 AM 37.8792 -77.7203 33° Northeast 362 417 16,000 -305 Descending Washington Center
Sun 10:37:38 AM 37.9575 -77.6486 36° Northeast 356 410 16,000 -298 Level Washington Center
Sun 10:38:39 AM 38.0358 -77.5797 35° Northeast 351 404 15,400 -1,884 Descending Washington Center
Sun 10:39:39 AM 38.1161 -77.5078 35° Northeast 351 404 12,200 -2,678 Descending Washington Center
Sun 10:40:40 AM 38.1944 -77.4411 34° Northeast 346 398 10,000 -1,119 Descending Washington Center
Sun 10:41:37 AM 38.2744 -77.3903 27° Northeast 326 375 10,000 -763 Level Washington Center
Sun 10:42:38 AM 38.3564 -77.3578 17° North 314 361 8,500 -1,537 Descending Washington Center
Sun 10:43:38 AM 38.4397 -77.3597 359° North 300 345 6,900 -1,587 Descending Washington Center
Sun 10:44:39 AM 38.5167 -77.3642 357° North 286 329 5,300 -942 Descending Washington Center
Sun 10:45:39 AM 38.5939 -77.3686 357° North 279 321 5,000 -397 Descending Washington Center
Sun 10:46:40 AM 38.6711 -77.3653 North 274 315 4,500 -504 Descending Washington Center
Sun 10:47:38 AM 38.7461 -77.3617 North 267 307 4,000 -229 Descending Washington Center
Sun 10:48:51 AM 38.8500 -77.3500 North 264 304 4,000  Level Potomac TRACON
Sun 10:49:51 AM 38.9167 -77.3500 360° North 264 304 4,000  Level Potomac TRACON
Sun 10:50:45 AM 38.9833 -77.3500 360° North 262 302 4,000 -333 Level Potomac TRACON
Sun 10:51:39 AM 39.0333 -77.3500 360° North 226 260 3,400 -526 Descending Potomac TRACON
Sun 10:52:39 AM 39.1000 -77.3500 360° North 224 258 3,000 -200 Descending Potomac TRACON
Sun 10:53:39 AM 39.1667 -77.3500 360° North 230 265 3,000 -100 Level Potomac TRACON
Sun 10:54:39 AM 39.2167 -77.3667 346° North 214 246 2,800 -263 Descending Potomac TRACON
Sun 10:55:33 AM 39.1833 -77.4167 229° Southwest 200 230 2,500 -421 Descending Potomac TRACON
Sun 10:56:33 AM 39.1333 -77.4333 194° South 204 235 2,000 -250 Descending Potomac TRACON
Sun 10:57:33 AM 39.0833 -77.4333 180° South 196 226 2,000 -100 Level Potomac TRACON
Sun 10:58:33 AM 39.0333 -77.4333 180° South 194 223 1,800 -550 Descending Potomac TRACON
Sun 10:59:33 AM 38.9833 -77.4333 180° South 152 175 900 -900 Descending Potomac TRACON

Login

Don't have an account? Register now (free) for customized features, flight alerts, and more!